sensor_id;sensor_type;location;lat;lon;timestamp;pressure;altitude;pressure_sealevel;temperature
71640;BMP280;60912;48.968;10.124;2023-02-15T00:01:28;97932.69;;;0.48
71640;BMP280;60912;48.968;10.124;2023-02-15T00:03:54;97931.59;;;0.45
71640;BMP280;60912;48.968;10.124;2023-02-15T00:06:19;97930.13;;;0.31
71640;BMP280;60912;48.968;10.124;2023-02-15T00:08:45;97922.41;;;0.30
71640;BMP280;60912;48.968;10.124;2023-02-15T00:11:12;97920.91;;;0.29
71640;BMP280;60912;48.968;10.124;2023-02-15T00:13:38;97926.09;;;0.36
71640;BMP280;60912;48.968;10.124;2023-02-15T00:16:07;97922.00;;;0.19
71640;BMP280;60912;48.968;10.124;2023-02-15T00:18:33;97927.94;;;0.14
71640;BMP280;60912;48.968;10.124;2023-02-15T00:21:04;97922.66;;;0.10
71640;BMP280;60912;48.968;10.124;2023-02-15T00:23:30;97927.66;;;0.12
71640;BMP280;60912;48.968;10.124;2023-02-15T00:26:05;97924.28;;;0.20
71640;BMP280;60912;48.968;10.124;2023-02-15T00:28:30;97921.13;;;0.22
71640;BMP280;60912;48.968;10.124;2023-02-15T00:31:11;97923.53;;;0.20
71640;BMP280;60912;48.968;10.124;2023-02-15T00:33:38;97916.47;;;0.22
71640;BMP280;60912;48.968;10.124;2023-02-15T00:36:05;97913.22;;;0.15
71640;BMP280;60912;48.968;10.124;2023-02-15T00:38:31;97915.91;;;0.15
71640;BMP280;60912;48.968;10.124;2023-02-15T00:40:58;97913.63;;;0.13
71640;BMP280;60912;48.968;10.124;2023-02-15T00:43:24;97907.59;;;0.09
71640;BMP280;60912;48.968;10.124;2023-02-15T00:45:49;97903.44;;;0.17
71640;BMP280;60912;48.968;10.124;2023-02-15T00:48:15;97907.00;;;0.27
71640;BMP280;60912;48.968;10.124;2023-02-15T00:50:40;97899.88;;;0.20
71640;BMP280;60912;48.968;10.124;2023-02-15T00:53:06;97903.88;;;0.16
71640;BMP280;60912;48.968;10.124;2023-02-15T00:55:31;97905.97;;;0.24
71640;BMP280;60912;48.968;10.124;2023-02-15T00:57:56;97902.69;;;0.29
71640;BMP280;60912;48.968;10.124;2023-02-15T01:00:22;97901.28;;;0.25
71640;BMP280;60912;48.968;10.124;2023-02-15T01:02:47;97903.34;;;0.21
71640;BMP280;60912;48.968;10.124;2023-02-15T01:05:12;97893.16;;;0.25
71640;BMP280;60912;48.968;10.124;2023-02-15T01:07:38;97896.41;;;0.20
71640;BMP280;60912;48.968;10.124;2023-02-15T01:10:06;97895.53;;;0.23
71640;BMP280;60912;48.968;10.124;2023-02-15T01:12:31;97889.88;;;0.30
71640;BMP280;60912;48.968;10.124;2023-02-15T01:14:57;97889.75;;;0.33
71640;BMP280;60912;48.968;10.124;2023-02-15T01:17:22;97895.06;;;0.37
71640;BMP280;60912;48.968;10.124;2023-02-15T01:19:48;97885.56;;;0.20
71640;BMP280;60912;48.968;10.124;2023-02-15T01:22:13;97887.09;;;0.21
71640;BMP280;60912;48.968;10.124;2023-02-15T01:24:38;97887.84;;;0.21
71640;BMP280;60912;48.968;10.124;2023-02-15T01:27:04;97874.63;;;0.23
71640;BMP280;60912;48.968;10.124;2023-02-15T01:29:29;97881.41;;;0.28
71640;BMP280;60912;48.968;10.124;2023-02-15T01:31:54;97872.66;;;0.24
71640;BMP280;60912;48.968;10.124;2023-02-15T01:34:21;97873.09;;;0.22
71640;BMP280;60912;48.968;10.124;2023-02-15T01:36:46;97875.03;;;0.22
71640;BMP280;60912;48.968;10.124;2023-02-15T01:39:12;97870.72;;;0.24
71640;BMP280;60912;48.968;10.124;2023-02-15T01:41:37;97863.53;;;0.18
71640;BMP280;60912;48.968;10.124;2023-02-15T01:44:03;97856.69;;;0.26
71640;BMP280;60912;48.968;10.124;2023-02-15T01:46:38;97860.38;;;0.32
71640;BMP280;60912;48.968;10.124;2023-02-15T01:49:14;97863.28;;;0.38
71640;BMP280;60912;48.968;10.124;2023-02-15T01:51:42;97870.56;;;0.28
71640;BMP280;60912;48.968;10.124;2023-02-15T01:54:19;97859.97;;;0.21
71640;BMP280;60912;48.968;10.124;2023-02-15T01:56:46;97860.75;;;-0.04
71640;BMP280;60912;48.968;10.124;2023-02-15T01:59:16;97857.38;;;0.05
71640;BMP280;60912;48.968;10.124;2023-02-15T02:01:42;97861.19;;;-0.06
71640;BMP280;60912;48.968;10.124;2023-02-15T02:06:39;97861.28;;;0.16
71640;BMP280;60912;48.968;10.124;2023-02-15T02:09:05;97850.75;;;0.18
71640;BMP280;60912;48.968;10.124;2023-02-15T02:11:30;97851.03;;;0.33
71640;BMP280;60912;48.968;10.124;2023-02-15T02:13:56;97844.38;;;0.47
71640;BMP280;60912;48.968;10.124;2023-02-15T02:35:27;97855.84;;;0.16
71640;BMP280;60912;48.968;10.124;2023-02-15T02:43:31;97851.28;;;0.13
71640;BMP280;60912;48.968;10.124;2023-02-15T02:46:06;97851.19;;;0.17
71640;BMP280;60912;48.968;10.124;2023-02-15T02:48:33;97851.88;;;-0.05
71640;BMP280;60912;48.968;10.124;2023-02-15T02:50:58;97851.97;;;0.05
71640;BMP280;60912;48.968;10.124;2023-02-15T02:53:24;97852.50;;;0.12
71640;BMP280;60912;48.968;10.124;2023-02-15T02:55:56;97853.22;;;0.25
71640;BMP280;60912;48.968;10.124;2023-02-15T03:01:09;97841.34;;;0.45
71640;BMP280;60912;48.968;10.124;2023-02-15T03:03:41;97840.88;;;0.59
71640;BMP280;60912;48.968;10.124;2023-02-15T03:06:40;97837.72;;;0.60
71640;BMP280;60912;48.968;10.124;2023-02-15T03:09:42;97847.28;;;0.52
71640;BMP280;60912;48.968;10.124;2023-02-15T03:12:24;97843.53;;;0.37
71640;BMP280;60912;48.968;10.124;2023-02-15T03:14:52;97840.91;;;0.46
71640;BMP280;60912;48.968;10.124;2023-02-15T03:17:21;97837.66;;;0.38
71640;BMP280;60912;48.968;10.124;2023-02-15T03:19:48;97825.69;;;0.27
71640;BMP280;60912;48.968;10.124;2023-02-15T03:22:20;97834.75;;;0.33
71640;BMP280;60912;48.968;10.124;2023-02-15T03:27:24;97834.50;;;0.18
71640;BMP280;60912;48.968;10.124;2023-02-15T03:29:55;97831.59;;;0.34
71640;BMP280;60912;48.968;10.124;2023-02-15T03:32:23;97826.03;;;0.38
71640;BMP280;60912;48.968;10.124;2023-02-15T03:34:50;97827.03;;;0.44
71640;BMP280;60912;48.968;10.124;2023-02-15T03:37:24;97825.56;;;0.52
71640;BMP280;60912;48.968;10.124;2023-02-15T03:39:55;97831.66;;;0.56
71640;BMP280;60912;48.968;10.124;2023-02-15T03:42:43;97833.47;;;0.59
71640;BMP280;60912;48.968;10.124;2023-02-15T03:45:13;97828.38;;;0.61
71640;BMP280;60912;48.968;10.124;2023-02-15T03:47:46;97828.72;;;0.51
71640;BMP280;60912;48.968;10.124;2023-02-15T03:50:19;97831.78;;;0.40
71640;BMP280;60912;48.968;10.124;2023-02-15T03:53:06;97824.16;;;0.26
71640;BMP280;60912;48.968;10.124;2023-02-15T03:55:34;97827.44;;;0.21
71640;BMP280;60912;48.968;10.124;2023-02-15T03:57:59;97829.91;;;0.28
71640;BMP280;60912;48.968;10.124;2023-02-15T04:00:51;97825.19;;;0.07
71640;BMP280;60912;48.968;10.124;2023-02-15T04:03:49;97825.50;;;0.09
71640;BMP280;60912;48.968;10.124;2023-02-15T04:06:17;97826.38;;;0.06
71640;BMP280;60912;48.968;10.124;2023-02-15T04:08:42;97827.69;;;0.01
71640;BMP280;60912;48.968;10.124;2023-02-15T04:11:26;97824.34;;;-0.03
71640;BMP280;60912;48.968;10.124;2023-02-15T04:13:52;97824.75;;;0.08
71640;BMP280;60912;48.968;10.124;2023-02-15T04:16:22;97820.19;;;0.05
71640;BMP280;60912;48.968;10.124;2023-02-15T04:18:48;97828.56;;;0.11
71640;BMP280;60912;48.968;10.124;2023-02-15T04:21:32;97815.97;;;0.04
71640;BMP280;60912;48.968;10.124;2023-02-15T04:24:16;97819.88;;;-0.10
71640;BMP280;60912;48.968;10.124;2023-02-15T04:27:01;97813.19;;;-0.30
71640;BMP280;60912;48.968;10.124;2023-02-15T04:29:28;97813.69;;;-0.36
71640;BMP280;60912;48.968;10.124;2023-02-15T04:31:55;97815.16;;;-0.31
71640;BMP280;60912;48.968;10.124;2023-02-15T04:34:22;97812.34;;;-0.27
71640;BMP280;60912;48.968;10.124;2023-02-15T04:36:47;97813.19;;;-0.18
71640;BMP280;60912;48.968;10.124;2023-02-15T04:39:14;97812.00;;;-0.29
71640;BMP280;60912;48.968;10.124;2023-02-15T04:41:39;97810.81;;;-0.16
71640;BMP280;60912;48.968;10.124;2023-02-15T04:44:04;97801.81;;;-0.13
71640;BMP280;60912;48.968;10.124;2023-02-15T04:46:30;97807.00;;;-0.06
71640;BMP280;60912;48.968;10.124;2023-02-15T04:48:56;97801.03;;;-0.01
71640;BMP280;60912;48.968;10.124;2023-02-15T04:51:22;97805.16;;;-0.09
71640;BMP280;60912;48.968;10.124;2023-02-15T04:53:47;97799.31;;;-0.20
71640;BMP280;60912;48.968;10.124;2023-02-15T04:56:13;97795.84;;;-0.33
71640;BMP280;60912;48.968;10.124;2023-02-15T04:58:38;97787.63;;;-0.42
71640;BMP280;60912;48.968;10.124;2023-02-15T05:01:07;97791.59;;;-0.59
71640;BMP280;60912;48.968;10.124;2023-02-15T05:03:32;97798.97;;;-0.60
71640;BMP280;60912;48.968;10.124;2023-02-15T05:05:57;97798.88;;;-0.56
71640;BMP280;60912;48.968;10.124;2023-02-15T05:08:23;97789.13;;;-0.66
71640;BMP280;60912;48.968;10.124;2023-02-15T05:10:48;97793.03;;;-0.67
71640;BMP280;60912;48.968;10.124;2023-02-15T05:13:14;97792.69;;;-0.57
71640;BMP280;60912;48.968;10.124;2023-02-15T05:15:40;97793.13;;;-0.46
71640;BMP280;60912;48.968;10.124;2023-02-15T05:18:05;97785.09;;;-0.49
71640;BMP280;60912;48.968;10.124;2023-02-15T05:20:32;97787.28;;;-0.57
71640;BMP280;60912;48.968;10.124;2023-02-15T05:22:58;97783.72;;;-0.41
71640;BMP280;60912;48.968;10.124;2023-02-15T05:25:23;97790.78;;;-0.31
71640;BMP280;60912;48.968;10.124;2023-02-15T05:28:11;97793.88;;;-0.45
71640;BMP280;60912;48.968;10.124;2023-02-15T05:33:12;97797.91;;;-0.24
71640;BMP280;60912;48.968;10.124;2023-02-15T05:35:37;97794.56;;;-0.16
71640;BMP280;60912;48.968;10.124;2023-02-15T05:38:03;97789.75;;;-0.12
71640;BMP280;60912;48.968;10.124;2023-02-15T05:40:28;97791.41;;;-0.14
71640;BMP280;60912;48.968;10.124;2023-02-15T05:42:54;97796.28;;;-0.22
71640;BMP280;60912;48.968;10.124;2023-02-15T05:45:20;97794.75;;;-0.23
71640;BMP280;60912;48.968;10.124;2023-02-15T05:47:46;97797.47;;;-0.23
71640;BMP280;60912;48.968;10.124;2023-02-15T05:50:11;97798.22;;;-0.22
71640;BMP280;60912;48.968;10.124;2023-02-15T05:52:37;97804.53;;;-0.13
71640;BMP280;60912;48.968;10.124;2023-02-15T05:55:03;97794.13;;;-0.27
71640;BMP280;60912;48.968;10.124;2023-02-15T05:57:29;97801.59;;;-0.18
71640;BMP280;60912;48.968;10.124;2023-02-15T05:59:54;97806.16;;;-0.15
71640;BMP280;60912;48.968;10.124;2023-02-15T06:02:20;97807.88;;;-0.09
71640;BMP280;60912;48.968;10.124;2023-02-15T06:04:45;97817.31;;;-0.51
71640;BMP280;60912;48.968;10.124;2023-02-15T06:07:11;97803.53;;;-0.57
71640;BMP280;60912;48.968;10.124;2023-02-15T06:09:40;97820.63;;;-0.73
71640;BMP280;60912;48.968;10.124;2023-02-15T06:12:05;97816.28;;;-0.70
71640;BMP280;60912;48.968;10.124;2023-02-15T06:14:30;97814.34;;;-0.57
71640;BMP280;60912;48.968;10.124;2023-02-15T06:16:56;97815.88;;;-0.56
71640;BMP280;60912;48.968;10.124;2023-02-15T06:19:21;97820.75;;;-0.63
71640;BMP280;60912;48.968;10.124;2023-02-15T06:21:48;97820.75;;;-0.63
71640;BMP280;60912;48.968;10.124;2023-02-15T06:24:13;97822.56;;;-0.73
71640;BMP280;60912;48.968;10.124;2023-02-15T06:26:39;97817.91;;;-0.73
71640;BMP280;60912;48.968;10.124;2023-02-15T06:29:04;97819.66;;;-0.79
71640;BMP280;60912;48.968;10.124;2023-02-15T06:31:30;97816.50;;;-0.90
71640;BMP280;60912;48.968;10.124;2023-02-15T06:33:55;97811.19;;;-0.81
71640;BMP280;60912;48.968;10.124;2023-02-15T06:36:30;97820.09;;;-0.67
71640;BMP280;60912;48.968;10.124;2023-02-15T06:38:56;97815.13;;;-0.56
71640;BMP280;60912;48.968;10.124;2023-02-15T06:41:21;97818.91;;;-0.41
71640;BMP280;60912;48.968;10.124;2023-02-15T06:43:47;97819.88;;;-0.35
71640;BMP280;60912;48.968;10.124;2023-02-15T06:46:12;97827.41;;;-0.14
71640;BMP280;60912;48.968;10.124;2023-02-15T06:48:38;97827.56;;;0.05
71640;BMP280;60912;48.968;10.124;2023-02-15T06:51:03;97826.69;;;0.20
71640;BMP280;60912;48.968;10.124;2023-02-15T06:53:29;97827.53;;;0.17
71640;BMP280;60912;48.968;10.124;2023-02-15T06:56:05;97827.97;;;0.16
71640;BMP280;60912;48.968;10.124;2023-02-15T06:58:42;97826.78;;;1.48
71640;BMP280;60912;48.968;10.124;2023-02-15T07:01:08;97816.81;;;2.94
71640;BMP280;60912;48.968;10.124;2023-02-15T07:03:35;97825.31;;;4.42
71640;BMP280;60912;48.968;10.124;2023-02-15T07:06:02;97814.13;;;6.24
71640;BMP280;60912;48.968;10.124;2023-02-15T07:08:28;97817.50;;;8.35
71640;BMP280;60912;48.968;10.124;2023-02-15T07:10:55;97815.81;;;10.42
71640;BMP280;60912;48.968;10.124;2023-02-15T07:13:40;97818.28;;;12.16
71640;BMP280;60912;48.968;10.124;2023-02-15T07:16:08;97811.53;;;13.33
71640;BMP280;60912;48.968;10.124;2023-02-15T07:18:33;97816.81;;;14.51
71640;BMP280;60912;48.968;10.124;2023-02-15T07:20:59;97810.56;;;15.43
71640;BMP280;60912;48.968;10.124;2023-02-15T07:23:24;97811.41;;;15.23
71640;BMP280;60912;48.968;10.124;2023-02-15T07:25:58;97808.50;;;15.29
71640;BMP280;60912;48.968;10.124;2023-02-15T07:28:23;97807.44;;;15.47
71640;BMP280;60912;48.968;10.124;2023-02-15T07:30:49;97801.75;;;16.87
71640;BMP280;60912;48.968;10.124;2023-02-15T07:33:14;97799.25;;;17.68
71640;BMP280;60912;48.968;10.124;2023-02-15T07:35:52;97809.34;;;18.88
71640;BMP280;60912;48.968;10.124;2023-02-15T07:38:20;97813.09;;;18.65
71640;BMP280;60912;48.968;10.124;2023-02-15T07:40:45;97817.00;;;17.48
71640;BMP280;60912;48.968;10.124;2023-02-15T07:43:11;97815.22;;;17.28
71640;BMP280;60912;48.968;10.124;2023-02-15T07:45:37;97819.59;;;16.61
71640;BMP280;60912;48.968;10.124;2023-02-15T07:48:03;97820.28;;;14.72
71640;BMP280;60912;48.968;10.124;2023-02-15T07:50:29;97822.84;;;13.09
71640;BMP280;60912;48.968;10.124;2023-02-15T07:52:55;97817.00;;;11.36
71640;BMP280;60912;48.968;10.124;2023-02-15T07:55:20;97816.69;;;9.74
71640;BMP280;60912;48.968;10.124;2023-02-15T07:57:48;97829.00;;;8.28
71640;BMP280;60912;48.968;10.124;2023-02-15T08:00:15;97819.75;;;7.24
71640;BMP280;60912;48.968;10.124;2023-02-15T08:02:42;97816.84;;;6.70
71640;BMP280;60912;48.968;10.124;2023-02-15T08:05:12;97817.69;;;6.10
71640;BMP280;60912;48.968;10.124;2023-02-15T08:07:37;97817.66;;;5.49
71640;BMP280;60912;48.968;10.124;2023-02-15T08:10:03;97813.66;;;5.30
71640;BMP280;60912;48.968;10.124;2023-02-15T08:12:29;97809.16;;;4.54
71640;BMP280;60912;48.968;10.124;2023-02-15T08:14:54;97804.22;;;4.58
71640;BMP280;60912;48.968;10.124;2023-02-15T08:17:20;97803.03;;;4.20
71640;BMP280;60912;48.968;10.124;2023-02-15T08:19:45;97812.97;;;3.85
71640;BMP280;60912;48.968;10.124;2023-02-15T08:22:14;97810.91;;;3.80
71640;BMP280;60912;48.968;10.124;2023-02-15T08:24:40;97801.38;;;3.99
71640;BMP280;60912;48.968;10.124;2023-02-15T08:27:08;97804.94;;;3.66
71640;BMP280;60912;48.968;10.124;2023-02-15T08:29:35;97800.13;;;3.52
71640;BMP280;60912;48.968;10.124;2023-02-15T08:32:07;97805.91;;;3.78
71640;BMP280;60912;48.968;10.124;2023-02-15T08:34:36;97799.94;;;3.89
71640;BMP280;60912;48.968;10.124;2023-02-15T08:37:02;97799.41;;;3.99
71640;BMP280;60912;48.968;10.124;2023-02-15T08:39:28;97793.44;;;4.10
71640;BMP280;60912;48.968;10.124;2023-02-15T08:41:54;97797.97;;;4.13
71640;BMP280;60912;48.968;10.124;2023-02-15T08:44:19;97792.84;;;4.06
71640;BMP280;60912;48.968;10.124;2023-02-15T08:46:47;97801.84;;;3.73
71640;BMP280;60912;48.968;10.124;2023-02-15T08:49:20;97792.41;;;3.51
71640;BMP280;60912;48.968;10.124;2023-02-15T08:51:47;97793.84;;;3.37
71640;BMP280;60912;48.968;10.124;2023-02-15T08:54:15;97793.50;;;3.77
71640;BMP280;60912;48.968;10.124;2023-02-15T08:56:42;97794.34;;;4.07
71640;BMP280;60912;48.968;10.124;2023-02-15T08:59:16;97789.09;;;4.18
71640;BMP280;60912;48.968;10.124;2023-02-15T09:01:42;97794.09;;;4.20
71640;BMP280;60912;48.968;10.124;2023-02-15T09:04:08;97790.88;;;4.06
71640;BMP280;60912;48.968;10.124;2023-02-15T09:06:34;97794.63;;;4.47
71640;BMP280;60912;48.968;10.124;2023-02-15T09:09:00;97799.19;;;4.65
71640;BMP280;60912;48.968;10.124;2023-02-15T09:11:30;97796.22;;;4.39
71640;BMP280;60912;48.968;10.124;2023-02-15T09:14:06;97791.97;;;4.38
71640;BMP280;60912;48.968;10.124;2023-02-15T09:16:35;97798.97;;;4.69
71640;BMP280;60912;48.968;10.124;2023-02-15T09:19:02;97795.03;;;4.99
71640;BMP280;60912;48.968;10.124;2023-02-15T09:21:30;97789.13;;;5.36
71640;BMP280;60912;48.968;10.124;2023-02-15T09:23:58;97785.88;;;5.52
71640;BMP280;60912;48.968;10.124;2023-02-15T09:26:25;97783.94;;;5.38
71640;BMP280;60912;48.968;10.124;2023-02-15T09:28:52;97776.81;;;5.46
71640;BMP280;60912;48.968;10.124;2023-02-15T09:31:22;97788.75;;;5.63
71640;BMP280;60912;48.968;10.124;2023-02-15T09:33:48;97786.81;;;5.49
71640;BMP280;60912;48.968;10.124;2023-02-15T09:38:43;97784.50;;;5.62
71640;BMP280;60912;48.968;10.124;2023-02-15T09:41:15;97787.81;;;5.86
71640;BMP280;60912;48.968;10.124;2023-02-15T09:49:58;97784.13;;;5.69
71640;BMP280;60912;48.968;10.124;2023-02-15T10:01:05;97788.34;;;6.11
71640;BMP280;60912;48.968;10.124;2023-02-15T10:03:45;97790.31;;;6.10
71640;BMP280;60912;48.968;10.124;2023-02-15T10:06:20;97791.50;;;6.03
71640;BMP280;60912;48.968;10.124;2023-02-15T10:20:41;97778.75;;;6.46
71640;BMP280;60912;48.968;10.124;2023-02-15T10:26:18;97772.38;;;6.55
71640;BMP280;60912;48.968;10.124;2023-02-15T10:31:50;97771.50;;;7.01
71640;BMP280;60912;48.968;10.124;2023-02-15T10:37:21;97764.34;;;6.77
71640;BMP280;60912;48.968;10.124;2023-02-15T10:40:10;97761.41;;;6.86
71640;BMP280;60912;48.968;10.124;2023-02-15T10:45:49;97755.88;;;7.07
71640;BMP280;60912;48.968;10.124;2023-02-15T10:48:38;97757.78;;;7.43
71640;BMP280;60912;48.968;10.124;2023-02-15T10:51:12;97757.78;;;7.43
71640;BMP280;60912;48.968;10.124;2023-02-15T10:56:25;97745.91;;;7.57
71640;BMP280;60912;48.968;10.124;2023-02-15T11:06:46;97733.44;;;7.56
71640;BMP280;60912;48.968;10.124;2023-02-15T11:09:17;97731.28;;;7.88
71640;BMP280;60912;48.968;10.124;2023-02-15T11:11:49;97731.50;;;7.74
71640;BMP280;60912;48.968;10.124;2023-02-15T11:17:08;97725.19;;;7.56
71640;BMP280;60912;48.968;10.124;2023-02-15T11:19:38;97722.72;;;7.58
71640;BMP280;60912;48.968;10.124;2023-02-15T11:22:06;97722.28;;;7.88
71640;BMP280;60912;48.968;10.124;2023-02-15T11:24:42;97719.34;;;8.02
71640;BMP280;60912;48.968;10.124;2023-02-15T11:27:26;97718.06;;;7.87
71640;BMP280;60912;48.968;10.124;2023-02-15T11:32:35;97718.09;;;7.98
71640;BMP280;60912;48.968;10.124;2023-02-15T11:43:05;97695.94;;;8.18
71640;BMP280;60912;48.968;10.124;2023-02-15T11:45:33;97699.66;;;8.32
71640;BMP280;60912;48.968;10.124;2023-02-15T11:48:00;97700.66;;;8.57
71640;BMP280;60912;48.968;10.124;2023-02-15T11:50:29;97709.16;;;8.70
71640;BMP280;60912;48.968;10.124;2023-02-15T11:53:05;97701.16;;;8.61
71640;BMP280;60912;48.968;10.124;2023-02-15T11:55:32;97698.41;;;8.61
71640;BMP280;60912;48.968;10.124;2023-02-15T12:00:34;97697.16;;;8.56
71640;BMP280;60912;48.968;10.124;2023-02-15T12:03:06;97693.38;;;8.87
71640;BMP280;60912;48.968;10.124;2023-02-15T12:05:39;97701.09;;;9.00
71640;BMP280;60912;48.968;10.124;2023-02-15T12:08:36;97685.91;;;8.65
71640;BMP280;60912;48.968;10.124;2023-02-15T12:11:11;97683.41;;;8.78
71640;BMP280;60912;48.968;10.124;2023-02-15T12:13:56;97685.13;;;8.98
71640;BMP280;60912;48.968;10.124;2023-02-15T12:16:22;97682.53;;;9.22
71640;BMP280;60912;48.968;10.124;2023-02-15T12:18:49;97682.75;;;9.24
71640;BMP280;60912;48.968;10.124;2023-02-15T12:21:25;97674.75;;;9.32
71640;BMP280;60912;48.968;10.124;2023-02-15T12:23:52;97674.19;;;9.45
71640;BMP280;60912;48.968;10.124;2023-02-15T12:26:29;97667.50;;;9.34
71640;BMP280;60912;48.968;10.124;2023-02-15T12:28:58;97673.78;;;9.13
71640;BMP280;60912;48.968;10.124;2023-02-15T12:31:36;97671.06;;;9.18
71640;BMP280;60912;48.968;10.124;2023-02-15T12:34:07;97656.03;;;9.14
71640;BMP280;60912;48.968;10.124;2023-02-15T12:36:43;97658.94;;;9.44
71640;BMP280;60912;48.968;10.124;2023-02-15T12:41:58;97652.81;;;9.62
71640;BMP280;60912;48.968;10.124;2023-02-15T12:44:35;97653.91;;;9.48
71640;BMP280;60912;48.968;10.124;2023-02-15T12:47:06;97656.44;;;9.46
71640;BMP280;60912;48.968;10.124;2023-02-15T12:49:41;97650.19;;;9.45
71640;BMP280;60912;48.968;10.124;2023-02-15T12:54:42;97642.13;;;9.88
71640;BMP280;60912;48.968;10.124;2023-02-15T13:02:46;97646.91;;;9.88
71640;BMP280;60912;48.968;10.124;2023-02-15T13:05:32;97626.06;;;9.98
71640;BMP280;60912;48.968;10.124;2023-02-15T13:08:30;97629.31;;;9.96
71640;BMP280;60912;48.968;10.124;2023-02-15T13:11:03;97627.13;;;10.19
71640;BMP280;60912;48.968;10.124;2023-02-15T13:13:31;97627.28;;;10.27
71640;BMP280;60912;48.968;10.124;2023-02-15T13:16:01;97623.47;;;10.35
71640;BMP280;60912;48.968;10.124;2023-02-15T13:21:20;97629.50;;;10.34
71640;BMP280;60912;48.968;10.124;2023-02-15T13:23:51;97619.38;;;10.42
71640;BMP280;60912;48.968;10.124;2023-02-15T13:26:21;97624.69;;;10.64
71640;BMP280;60912;48.968;10.124;2023-02-15T13:28:51;97627.44;;;10.40
71640;BMP280;60912;48.968;10.124;2023-02-15T13:31:20;97623.63;;;10.43
71640;BMP280;60912;48.968;10.124;2023-02-15T13:34:15;97624.47;;;10.62
71640;BMP280;60912;48.968;10.124;2023-02-15T13:36:50;97620.53;;;10.52
71640;BMP280;60912;48.968;10.124;2023-02-15T13:39:34;97616.41;;;10.40
71640;BMP280;60912;48.968;10.124;2023-02-15T13:52:45;97610.13;;;10.15
71640;BMP280;60912;48.968;10.124;2023-02-15T13:55:37;97602.81;;;10.23
71640;BMP280;60912;48.968;10.124;2023-02-15T14:09:28;97589.44;;;10.57
71640;BMP280;60912;48.968;10.124;2023-02-15T14:17:59;97596.81;;;10.43
71640;BMP280;60912;48.968;10.124;2023-02-15T14:20:44;97598.38;;;10.39
71640;BMP280;60912;48.968;10.124;2023-02-15T14:23:25;97602.13;;;10.41
71640;BMP280;60912;48.968;10.124;2023-02-15T14:26:17;97598.16;;;10.37
71640;BMP280;60912;48.968;10.124;2023-02-15T14:32:03;97598.25;;;10.26
71640;BMP280;60912;48.968;10.124;2023-02-15T14:34:46;97596.38;;;10.39
71640;BMP280;60912;48.968;10.124;2023-02-15T14:37:13;97596.66;;;10.36
71640;BMP280;60912;48.968;10.124;2023-02-15T14:40:53;97599.75;;;10.27
71640;BMP280;60912;48.968;10.124;2023-02-15T15:02:50;97611.28;;;9.19
71640;BMP280;60912;48.968;10.124;2023-02-15T15:07:58;97602.66;;;8.87
71640;BMP280;60912;48.968;10.124;2023-02-15T15:10:43;97599.69;;;8.74
71640;BMP280;60912;48.968;10.124;2023-02-15T15:15:56;97609.19;;;8.78
71640;BMP280;60912;48.968;10.124;2023-02-15T15:18:48;97592.19;;;8.80
71640;BMP280;60912;48.968;10.124;2023-02-15T15:35:33;97602.00;;;8.59
71640;BMP280;60912;48.968;10.124;2023-02-15T15:48:40;97606.81;;;8.08
71640;BMP280;60912;48.968;10.124;2023-02-15T15:51:29;97609.03;;;7.82
71640;BMP280;60912;48.968;10.124;2023-02-15T15:53:55;97609.50;;;7.75
71640;BMP280;60912;48.968;10.124;2023-02-15T15:56:29;97617.94;;;7.60
71640;BMP280;60912;48.968;10.124;2023-02-15T15:58:59;97624.88;;;7.39
71640;BMP280;60912;48.968;10.124;2023-02-15T16:01:29;97620.34;;;7.19
71640;BMP280;60912;48.968;10.124;2023-02-15T16:03:57;97614.56;;;7.06
71640;BMP280;60912;48.968;10.124;2023-02-15T16:06:37;97612.25;;;6.99
71640;BMP280;60912;48.968;10.124;2023-02-15T16:09:21;97618.88;;;6.75
71640;BMP280;60912;48.968;10.124;2023-02-15T16:11:49;97618.06;;;6.64
71640;BMP280;60912;48.968;10.124;2023-02-15T16:16:52;97623.06;;;6.34
71640;BMP280;60912;48.968;10.124;2023-02-15T16:19:26;97623.25;;;6.25
71640;BMP280;60912;48.968;10.124;2023-02-15T16:21:53;97616.88;;;6.07
71640;BMP280;60912;48.968;10.124;2023-02-15T16:29:56;97610.78;;;5.92
71640;BMP280;60912;48.968;10.124;2023-02-15T16:32:23;97612.72;;;5.86
71640;BMP280;60912;48.968;10.124;2023-02-15T16:34:57;97605.00;;;5.85
71640;BMP280;60912;48.968;10.124;2023-02-15T16:37:30;97607.19;;;5.81
71640;BMP280;60912;48.968;10.124;2023-02-15T16:39:56;97612.53;;;5.70
71640;BMP280;60912;48.968;10.124;2023-02-15T16:42:22;97617.09;;;5.52
71640;BMP280;60912;48.968;10.124;2023-02-15T16:44:51;97615.50;;;5.46
71640;BMP280;60912;48.968;10.124;2023-02-15T16:47:26;97620.97;;;5.46
71640;BMP280;60912;48.968;10.124;2023-02-15T16:49:55;97625.97;;;5.47
71640;BMP280;60912;48.968;10.124;2023-02-15T16:52:24;97618.13;;;5.55
71640;BMP280;60912;48.968;10.124;2023-02-15T16:54:59;97634.25;;;5.53
71640;BMP280;60912;48.968;10.124;2023-02-15T16:57:32;97627.19;;;5.46
71640;BMP280;60912;48.968;10.124;2023-02-15T17:00:07;97631.59;;;5.38
71640;BMP280;60912;48.968;10.124;2023-02-15T17:02:34;97641.97;;;5.34
71640;BMP280;60912;48.968;10.124;2023-02-15T17:10:37;97650.66;;;5.12
71640;BMP280;60912;48.968;10.124;2023-02-15T17:18:44;97660.31;;;4.93
71640;BMP280;60912;48.968;10.124;2023-02-15T17:21:20;97640.38;;;4.87
71640;BMP280;60912;48.968;10.124;2023-02-15T17:23:51;97649.31;;;4.87
71640;BMP280;60912;48.968;10.124;2023-02-15T17:26:24;97655.09;;;4.75
71640;BMP280;60912;48.968;10.124;2023-02-15T17:28:54;97654.94;;;4.64
71640;BMP280;60912;48.968;10.124;2023-02-15T17:31:21;97661.91;;;4.65
71640;BMP280;60912;48.968;10.124;2023-02-15T17:33:48;97657.09;;;4.60
71640;BMP280;60912;48.968;10.124;2023-02-15T17:36:18;97662.25;;;4.58
71640;BMP280;60912;48.968;10.124;2023-02-15T17:41:31;97660.22;;;4.38
71640;BMP280;60912;48.968;10.124;2023-02-15T17:43:57;97662.69;;;4.36
71640;BMP280;60912;48.968;10.124;2023-02-15T17:46:24;97666.59;;;4.20
71640;BMP280;60912;48.968;10.124;2023-02-15T17:48:51;97667.75;;;4.14
71640;BMP280;60912;48.968;10.124;2023-02-15T17:51:19;97666.88;;;4.07
71640;BMP280;60912;48.968;10.124;2023-02-15T17:53:45;97662.09;;;4.02
71640;BMP280;60912;48.968;10.124;2023-02-15T17:56:30;97670.09;;;3.91
71640;BMP280;60912;48.968;10.124;2023-02-15T17:58:55;97664.16;;;3.93
71640;BMP280;60912;48.968;10.124;2023-02-15T18:01:21;97665.09;;;3.90